x

La Perouse Bank (46206) Wave Buoy

12:00 - Tue 6th Dec 2016 All times are PST. -8 hours from GMT.

  • Sig Wave height 7.5ft
  • Peak Period 12s
  • Wind
    2mph, 4mph gusts
  • Sea Temp 54°f
  • Ar Temp 44°f
  • Sea Pressure 1023.1mb
  • La Perouse Bank
  • La Perouse Bank

More Historic Weather Station data

Upgrade to MSW Pro to gain access to the past 30 days of data for over 8000 Wavebouys and Weather Stations around the globe.

Join Pro

Comparision Forecast

View Surf forecast
   
Ter 12/06 12:00 7.5ft 12s 2 4 mph 1023.1mb 54f 44f
9:00 8ft 12s 2 4 mph 1022.3mb 54f 44f
8:00 8.5ft 12s 4 7 mph 1021.9mb 54f 43f
7:00 8ft 13s 4 9 mph 1021.2mb 55f 42f
6:00 9ft 14s 9 13 mph 1020.6mb 55f 42f
5:00 9ft 13s 11 13 mph 1020.1mb 54f 42f
3:00 9.5ft 13s 11 16 mph 1019.3mb 55f 42f
2:00 11ft 13s 16 20 mph 1018.7mb 55f 42f
1:00 10ft 14s 9 13 mph 1018.3mb 55f 42f
12:00 9.5ft 14s 11 16 mph 1018mb 55f 42f
Seg 12/05 11:00 10ft 13s 9 13 mph 1017.5mb 54f 42f
10:00 9.5ft 14s 9 13 mph 1017.1mb 55f 42f
9:00 9.5ft 14s 11 16 mph 1016.8mb 55f 42f
8:00 10ft 11s 11 16 mph 1016.4mb 54f 43f
7:00 10ft 14s 2 4 mph 1016.2mb 54f 42f
6:00 10.5ft 12s  -  4 mph 1016.1mb 54f 41f
5:00 10ft 13s 4 9 mph 1015.8mb 54f 41f
4:00 10ft 12s 13 20 mph 1015.8mb 55f 41f
3:00 10.5ft 13s 4 9 mph 1015.7mb 55f 42f
2:00 11ft 14s 7 13 mph 1015.7mb 54f 42f
1:00 11ft 14s 7 13 mph 1016.1mb 55f 42f
12:00 11ft 14s 2 4 mph 1016.4mb 55f 40f
11:00 12ft 13s 2 7 mph 1016.8mb 55f 42f
10:00 12ft 14s 2 4 mph 1016.7mb 55f 43f
9:00 11ft 12s 2 4 mph 1016.6mb 56f 42f
8:00 10.5ft 13s 11 16 mph 1016.6mb 56f 40f
7:00 10ft 12s 2 4 mph 1016.3mb 55f 42f
6:00 11ft 14s 2 7 mph 1016.5mb 55f 42f
5:00 11.5ft 14s 7 11 mph 1016.4mb 55f 41f
4:00 11.5ft 14s 7 11 mph 1016.9mb 55f 39f
3:00 11ft 14s 9 13 mph 1016.9mb 55f 41f
2:00 13ft 14s 20 36 mph 1016.8mb 55f 42f
1:00 12ft 15s 7 13 mph 1017.3mb 55f 41f
12:00 12ft 14s 4 9 mph 1017.7mb 55f 41f
Dom 12/04 11:00 12.5ft 15s 13 20 mph 1017.9mb 55f 41f
10:00 14ft 14s 9 16 mph 1018.4mb 55f 41f
9:00 14ft 14s 7 16 mph 1019.1mb 55f 39f
8:00 14ft 14s 4 11 mph 1019.1mb 55f 40f
7:00 14ft 14s 16 25 mph 1019.5mb 55f 40f
6:00 15ft 12s 9 13 mph 1019.2mb 55f 43f
5:00 14ft 14s 11 16 mph 1019.5mb 55f 43f
4:00 15ft 14s 16 22 mph 1019.8mb 55f 42f
3:00 14ft 14s 16 22 mph 1020.2mb 55f 41f
2:00 14ft 15s 27 34 mph 1019.7mb 56f 43f
1:00 13.5ft 15s 22 29 mph 1019.4mb 56f 45f
12:00 14.5ft 16s 20 27 mph 1019.6mb 56f 46f
11:00 15.5ft 16s 22 27 mph 1019.7mb 56f 45f
10:00  -   -  34
mph
1020mb - 42f
9:00 14.5ft 14s 27 34 mph 1019.3mb 56f 46f
7:00 15ft 15s 29
mph
1017.7mb 56f 45f
6:00  -   -  27
mph
1017.5mb - 46f
4:00 15ft 15s 29 36 mph 1017.1mb 56f 46f
3:00 15ft 14s 29 36 mph 1017.3mb 56f 44f
2:00 15ft 14s 18 22 mph 1017.9mb 56f 43f
12:00 14ft 14s 20 29 mph 1018.6mb 56f 43f
Sáb 12/03 11:00 15ft 14s 22 29 mph 1018.4mb 56f 46f
9:00 14.5ft 13s 25 34 mph 1018.9mb 56f 45f
8:00 15.5ft 15s 25 31 mph 1019mb 56f 47f
7:00 16.5ft 14s 18 22 mph 1019.5mb 56f 47f
6:00 16ft 15s 22 29 mph 1019.7mb 56f 47f
5:00 15.5ft 16s 16 22 mph 1020.3mb 56f 48f
3:00 15ft 16s 16 22 mph 1021.2mb 56f 50f
2:00 16.5ft 15s 16 22 mph 1021.8mb 56f 50f
1:00 15.5ft 17s 11 18 mph 1022.6mb 56f 49f
12:00 16.5ft 16s 16 20 mph 1023.1mb 56f 49f
11:00 15.5ft 15s 18 25 mph 1023.7mb 56f 49f
10:00 18.5ft 16s 22 31 mph 1023.7mb 56f 48f
9:00 19.5ft 16s 18 22 mph 1023.4mb 57f 51f
8:00 19.5ft 16s 16 22 mph 1023.1mb 57f 49f
7:00 18.5ft 16s 16 22 mph 1022.8mb 57f 50f
6:00 18.5ft 14s 13 20 mph 1023.5mb 57f 48f
5:00 18ft 16s 20 27 mph 1022.6mb 57f 52f
4:00 19ft 16s 18 22 mph 1022.6mb 57f 51f
3:00 18.5ft 18s 20 25 mph 1022.6mb 57f 51f
2:00 18ft 14s 22 27 mph 1022.3mb 57f 51f
1:00 18ft 16s 18 27 mph 1022.3mb 57f 51f
12:00 18ft 17s 20 25 mph 1022.1mb 56f 52f
Sex 12/02 11:00 19.5ft 15s 22 29 mph 1021.8mb 57f 52f
10:00 18ft 15s 18 25 mph 1021.1mb 56f 51f